sensor_id;sensor_type;location;lat;lon;timestamp;temperature;humidity
12386;DHT22;6257;57.634;18.310;2023-08-08T00:01:33;15.70;99.90
12386;DHT22;6257;57.634;18.310;2023-08-08T00:04:01;15.70;99.90
12386;DHT22;6257;57.634;18.310;2023-08-08T00:06:28;15.70;99.90
12386;DHT22;6257;57.634;18.310;2023-08-08T00:08:55;15.70;99.90
12386;DHT22;6257;57.634;18.310;2023-08-08T00:11:22;15.70;99.90
12386;DHT22;6257;57.634;18.310;2023-08-08T00:13:50;15.70;99.90
12386;DHT22;6257;57.634;18.310;2023-08-08T00:16:18;15.70;99.90
12386;DHT22;6257;57.634;18.310;2023-08-08T00:18:45;15.60;99.90
12386;DHT22;6257;57.634;18.310;2023-08-08T00:21:12;15.60;99.90
12386;DHT22;6257;57.634;18.310;2023-08-08T00:23:39;15.60;99.90
12386;DHT22;6257;57.634;18.310;2023-08-08T00:26:06;15.60;99.90
12386;DHT22;6257;57.634;18.310;2023-08-08T00:28:33;15.60;99.90
12386;DHT22;6257;57.634;18.310;2023-08-08T00:31:02;15.70;99.90
12386;DHT22;6257;57.634;18.310;2023-08-08T00:33:29;15.70;99.90
12386;DHT22;6257;57.634;18.310;2023-08-08T00:35:56;15.70;99.90
12386;DHT22;6257;57.634;18.310;2023-08-08T00:38:23;15.70;99.90
12386;DHT22;6257;57.634;18.310;2023-08-08T00:40:50;15.70;99.90
12386;DHT22;6257;57.634;18.310;2023-08-08T00:43:17;15.70;99.90
12386;DHT22;6257;57.634;18.310;2023-08-08T00:45:45;15.70;99.90
12386;DHT22;6257;57.634;18.310;2023-08-08T00:48:13;15.70;99.90
12386;DHT22;6257;57.634;18.310;2023-08-08T00:50:43;15.70;99.90
12386;DHT22;6257;57.634;18.310;2023-08-08T00:53:10;15.80;99.90
12386;DHT22;6257;57.634;18.310;2023-08-08T00:55:37;15.70;99.90
12386;DHT22;6257;57.634;18.310;2023-08-08T00:58:04;15.80;99.90
12386;DHT22;6257;57.634;18.310;2023-08-08T01:00:32;15.80;99.90
12386;DHT22;6257;57.634;18.310;2023-08-08T01:02:59;15.80;99.90
12386;DHT22;6257;57.634;18.310;2023-08-08T01:05:32;15.80;99.90
12386;DHT22;6257;57.634;18.310;2023-08-08T01:08:04;15.80;99.90
12386;DHT22;6257;57.634;18.310;2023-08-08T01:10:34;15.80;99.90
12386;DHT22;6257;57.634;18.310;2023-08-08T01:13:05;15.70;99.90
12386;DHT22;6257;57.634;18.310;2023-08-08T01:15:34;15.70;99.90
12386;DHT22;6257;57.634;18.310;2023-08-08T01:18:03;15.60;99.90
12386;DHT22;6257;57.634;18.310;2023-08-08T01:20:33;15.60;99.90
12386;DHT22;6257;57.634;18.310;2023-08-08T01:23:07;15.60;99.90
12386;DHT22;6257;57.634;18.310;2023-08-08T01:25:38;15.50;99.90
12386;DHT22;6257;57.634;18.310;2023-08-08T01:28:06;15.60;99.90
12386;DHT22;6257;57.634;18.310;2023-08-08T01:30:33;15.60;99.90
12386;DHT22;6257;57.634;18.310;2023-08-08T01:33:00;15.50;99.90
12386;DHT22;6257;57.634;18.310;2023-08-08T01:35:30;15.50;99.90
12386;DHT22;6257;57.634;18.310;2023-08-08T01:38:03;15.40;99.90
12386;DHT22;6257;57.634;18.310;2023-08-08T01:40:32;15.40;99.90
12386;DHT22;6257;57.634;18.310;2023-08-08T01:43:03;15.40;99.90
12386;DHT22;6257;57.634;18.310;2023-08-08T01:45:30;15.40;99.90
12386;DHT22;6257;57.634;18.310;2023-08-08T01:47:58;15.40;99.90
12386;DHT22;6257;57.634;18.310;2023-08-08T01:50:25;15.40;99.90
12386;DHT22;6257;57.634;18.310;2023-08-08T01:52:52;15.40;99.90
12386;DHT22;6257;57.634;18.310;2023-08-08T01:55:19;15.40;99.90
12386;DHT22;6257;57.634;18.310;2023-08-08T01:57:46;15.30;99.90
12386;DHT22;6257;57.634;18.310;2023-08-08T02:02:43;15.30;99.90
12386;DHT22;6257;57.634;18.310;2023-08-08T02:05:10;15.30;99.90
12386;DHT22;6257;57.634;18.310;2023-08-08T02:07:37;15.30;99.90
12386;DHT22;6257;57.634;18.310;2023-08-08T02:10:04;15.30;99.90
12386;DHT22;6257;57.634;18.310;2023-08-08T02:12:32;15.30;99.90
12386;DHT22;6257;57.634;18.310;2023-08-08T02:14:59;15.30;99.90
12386;DHT22;6257;57.634;18.310;2023-08-08T02:17:29;15.40;99.90
12386;DHT22;6257;57.634;18.310;2023-08-08T02:19:56;15.40;99.90
12386;DHT22;6257;57.634;18.310;2023-08-08T02:22:23;15.80;99.90
12386;DHT22;6257;57.634;18.310;2023-08-08T02:24:51;15.30;99.90
12386;DHT22;6257;57.634;18.310;2023-08-08T02:27:18;15.30;99.90
12386;DHT22;6257;57.634;18.310;2023-08-08T02:29:45;15.30;99.90
12386;DHT22;6257;57.634;18.310;2023-08-08T02:32:12;15.30;99.90
12386;DHT22;6257;57.634;18.310;2023-08-08T02:34:41;15.30;99.90
12386;DHT22;6257;57.634;18.310;2023-08-08T02:37:08;15.30;99.90
12386;DHT22;6257;57.634;18.310;2023-08-08T02:39:35;15.30;99.90
12386;DHT22;6257;57.634;18.310;2023-08-08T02:42:03;15.30;99.90
12386;DHT22;6257;57.634;18.310;2023-08-08T02:44:30;15.30;99.90
12386;DHT22;6257;57.634;18.310;2023-08-08T02:46:57;15.30;99.90
12386;DHT22;6257;57.634;18.310;2023-08-08T02:49:24;15.20;99.90
12386;DHT22;6257;57.634;18.310;2023-08-08T02:51:53;15.20;99.90
12386;DHT22;6257;57.634;18.310;2023-08-08T02:54:20;15.20;99.90
12386;DHT22;6257;57.634;18.310;2023-08-08T02:56:47;15.20;99.90
12386;DHT22;6257;57.634;18.310;2023-08-08T02:59:14;15.20;99.90
12386;DHT22;6257;57.634;18.310;2023-08-08T03:01:41;15.20;99.90
12386;DHT22;6257;57.634;18.310;2023-08-08T03:04:09;15.10;99.90
12386;DHT22;6257;57.634;18.310;2023-08-08T03:06:36;15.20;99.90
12386;DHT22;6257;57.634;18.310;2023-08-08T03:09:04;15.20;99.90
12386;DHT22;6257;57.634;18.310;2023-08-08T03:11:32;15.10;99.90
12386;DHT22;6257;57.634;18.310;2023-08-08T03:13:59;15.20;99.90
12386;DHT22;6257;57.634;18.310;2023-08-08T03:16:26;15.20;99.90
12386;DHT22;6257;57.634;18.310;2023-08-08T03:18:53;15.10;99.90
12386;DHT22;6257;57.634;18.310;2023-08-08T03:21:20;15.10;99.90
12386;DHT22;6257;57.634;18.310;2023-08-08T03:23:47;15.10;99.90
12386;DHT22;6257;57.634;18.310;2023-08-08T03:26:16;15.10;99.90
12386;DHT22;6257;57.634;18.310;2023-08-08T03:28:43;15.10;99.90
12386;DHT22;6257;57.634;18.310;2023-08-08T03:31:10;15.10;99.90
12386;DHT22;6257;57.634;18.310;2023-08-08T03:33:37;15.10;99.90
12386;DHT22;6257;57.634;18.310;2023-08-08T03:36:04;15.10;99.90
12386;DHT22;6257;57.634;18.310;2023-08-08T03:38:31;15.10;99.90
12386;DHT22;6257;57.634;18.310;2023-08-08T03:40:58;15.10;99.90
12386;DHT22;6257;57.634;18.310;2023-08-08T03:43:27;15.10;99.90
12386;DHT22;6257;57.634;18.310;2023-08-08T03:45:54;15.10;99.90
12386;DHT22;6257;57.634;18.310;2023-08-08T03:48:21;15.10;99.90
12386;DHT22;6257;57.634;18.310;2023-08-08T03:50:48;15.10;99.90
12386;DHT22;6257;57.634;18.310;2023-08-08T03:53:15;15.20;99.90
12386;DHT22;6257;57.634;18.310;2023-08-08T03:55:42;15.10;99.90
12386;DHT22;6257;57.634;18.310;2023-08-08T03:58:09;15.20;99.90
12386;DHT22;6257;57.634;18.310;2023-08-08T04:00:38;13.40;99.90
12386;DHT22;6257;57.634;18.310;2023-08-08T04:03:12;15.10;99.90
12386;DHT22;6257;57.634;18.310;2023-08-08T04:05:40;15.10;99.90
12386;DHT22;6257;57.634;18.310;2023-08-08T04:08:07;15.20;99.90
12386;DHT22;6257;57.634;18.310;2023-08-08T04:10:34;15.20;99.90
12386;DHT22;6257;57.634;18.310;2023-08-08T04:13:01;15.20;99.90
12386;DHT22;6257;57.634;18.310;2023-08-08T04:15:28;15.10;99.90
12386;DHT22;6257;57.634;18.310;2023-08-08T04:17:57;15.10;99.90
12386;DHT22;6257;57.634;18.310;2023-08-08T04:20:24;15.10;99.90
12386;DHT22;6257;57.634;18.310;2023-08-08T04:22:51;15.10;99.90
12386;DHT22;6257;57.634;18.310;2023-08-08T04:25:18;15.10;99.90
12386;DHT22;6257;57.634;18.310;2023-08-08T04:27:46;15.10;99.90
12386;DHT22;6257;57.634;18.310;2023-08-08T04:30:13;15.10;99.90
12386;DHT22;6257;57.634;18.310;2023-08-08T04:32:40;15.10;99.90
12386;DHT22;6257;57.634;18.310;2023-08-08T04:35:09;16.00;99.90
12386;DHT22;6257;57.634;18.310;2023-08-08T04:37:36;15.10;99.90
12386;DHT22;6257;57.634;18.310;2023-08-08T04:40:04;15.10;99.90
12386;DHT22;6257;57.634;18.310;2023-08-08T04:42:34;15.10;99.90
12386;DHT22;6257;57.634;18.310;2023-08-08T04:45:01;15.10;99.90
12386;DHT22;6257;57.634;18.310;2023-08-08T04:47:29;15.10;99.90
12386;DHT22;6257;57.634;18.310;2023-08-08T04:49:56;15.10;99.90
12386;DHT22;6257;57.634;18.310;2023-08-08T04:54:52;15.00;99.90
12386;DHT22;6257;57.634;18.310;2023-08-08T04:57:20;15.00;99.90
12386;DHT22;6257;57.634;18.310;2023-08-08T04:59:47;15.00;99.90
12386;DHT22;6257;57.634;18.310;2023-08-08T05:02:14;14.90;99.90
12386;DHT22;6257;57.634;18.310;2023-08-08T05:04:42;14.80;99.90
12386;DHT22;6257;57.634;18.310;2023-08-08T05:07:09;14.80;99.90
12386;DHT22;6257;57.634;18.310;2023-08-08T05:09:37;14.70;99.90
12386;DHT22;6257;57.634;18.310;2023-08-08T05:12:05;14.70;99.90
12386;DHT22;6257;57.634;18.310;2023-08-08T05:14:32;14.60;99.90
12386;DHT22;6257;57.634;18.310;2023-08-08T05:17:00;14.60;99.90
12386;DHT22;6257;57.634;18.310;2023-08-08T05:19:28;14.60;99.90
12386;DHT22;6257;57.634;18.310;2023-08-08T05:21:55;14.50;99.90
12386;DHT22;6257;57.634;18.310;2023-08-08T05:24:22;14.50;99.90
12386;DHT22;6257;57.634;18.310;2023-08-08T05:29:19;14.40;99.90
12386;DHT22;6257;57.634;18.310;2023-08-08T05:31:46;14.30;99.90
12386;DHT22;6257;57.634;18.310;2023-08-08T05:34:13;14.30;99.90
12386;DHT22;6257;57.634;18.310;2023-08-08T05:36:40;14.30;99.90
12386;DHT22;6257;57.634;18.310;2023-08-08T05:39:07;14.30;99.90
12386;DHT22;6257;57.634;18.310;2023-08-08T05:41:35;14.30;99.90
12386;DHT22;6257;57.634;18.310;2023-08-08T05:44:03;14.30;99.90
12386;DHT22;6257;57.634;18.310;2023-08-08T05:46:31;14.30;99.90
12386;DHT22;6257;57.634;18.310;2023-08-08T05:48:58;14.20;99.90
12386;DHT22;6257;57.634;18.310;2023-08-08T05:51:26;14.20;99.90
12386;DHT22;6257;57.634;18.310;2023-08-08T05:53:53;14.20;99.90
12386;DHT22;6257;57.634;18.310;2023-08-08T05:56:20;14.20;99.90
12386;DHT22;6257;57.634;18.310;2023-08-08T05:58:47;14.10;99.90
12386;DHT22;6257;57.634;18.310;2023-08-08T06:01:16;14.10;99.90
12386;DHT22;6257;57.634;18.310;2023-08-08T06:03:43;14.10;99.90
12386;DHT22;6257;57.634;18.310;2023-08-08T06:06:10;14.10;99.90
12386;DHT22;6257;57.634;18.310;2023-08-08T06:08:37;14.10;99.90
12386;DHT22;6257;57.634;18.310;2023-08-08T06:11:04;14.10;99.90
12386;DHT22;6257;57.634;18.310;2023-08-08T06:13:31;14.10;99.90
12386;DHT22;6257;57.634;18.310;2023-08-08T06:15:58;14.10;99.90
12386;DHT22;6257;57.634;18.310;2023-08-08T06:18:28;14.10;99.90
12386;DHT22;6257;57.634;18.310;2023-08-08T06:20:55;14.10;99.90
12386;DHT22;6257;57.634;18.310;2023-08-08T06:23:22;14.00;99.90
12386;DHT22;6257;57.634;18.310;2023-08-08T06:25:49;14.00;99.90
12386;DHT22;6257;57.634;18.310;2023-08-08T06:28:16;14.00;99.90
12386;DHT22;6257;57.634;18.310;2023-08-08T06:30:43;14.00;99.90
12386;DHT22;6257;57.634;18.310;2023-08-08T06:33:10;13.90;99.90
12386;DHT22;6257;57.634;18.310;2023-08-08T06:35:39;14.00;99.90
12386;DHT22;6257;57.634;18.310;2023-08-08T06:38:06;14.00;99.90
12386;DHT22;6257;57.634;18.310;2023-08-08T06:40:34;14.00;99.90
12386;DHT22;6257;57.634;18.310;2023-08-08T06:43:01;13.90;99.90
12386;DHT22;6257;57.634;18.310;2023-08-08T06:45:28;13.80;99.90
12386;DHT22;6257;57.634;18.310;2023-08-08T06:47:55;13.80;99.90
12386;DHT22;6257;57.634;18.310;2023-08-08T06:50:22;13.80;99.90
12386;DHT22;6257;57.634;18.310;2023-08-08T06:52:51;13.80;99.90
12386;DHT22;6257;57.634;18.310;2023-08-08T06:55:18;13.80;99.90
12386;DHT22;6257;57.634;18.310;2023-08-08T06:57:45;13.80;99.90
12386;DHT22;6257;57.634;18.310;2023-08-08T07:00:13;13.80;99.90
12386;DHT22;6257;57.634;18.310;2023-08-08T07:02:42;13.80;99.90
12386;DHT22;6257;57.634;18.310;2023-08-08T07:05:08;13.80;99.90
12386;DHT22;6257;57.634;18.310;2023-08-08T07:07:36;13.80;99.90
12386;DHT22;6257;57.634;18.310;2023-08-08T07:10:06;13.70;99.90
12386;DHT22;6257;57.634;18.310;2023-08-08T07:12:33;13.60;99.90
12386;DHT22;6257;57.634;18.310;2023-08-08T07:15:00;13.60;99.90
12386;DHT22;6257;57.634;18.310;2023-08-08T07:17:27;13.60;99.90
12386;DHT22;6257;57.634;18.310;2023-08-08T07:19:54;13.60;99.90
12386;DHT22;6257;57.634;18.310;2023-08-08T07:22:22;13.60;99.90
12386;DHT22;6257;57.634;18.310;2023-08-08T07:24:49;13.60;99.90
12386;DHT22;6257;57.634;18.310;2023-08-08T07:29:45;13.60;99.90
12386;DHT22;6257;57.634;18.310;2023-08-08T07:32:12;13.60;99.90
12386;DHT22;6257;57.634;18.310;2023-08-08T07:34:41;13.50;99.90
12386;DHT22;6257;57.634;18.310;2023-08-08T07:37:07;13.50;99.90
12386;DHT22;6257;57.634;18.310;2023-08-08T07:39:35;13.50;99.90
12386;DHT22;6257;57.634;18.310;2023-08-08T07:42:02;13.50;99.90
12386;DHT22;6257;57.634;18.310;2023-08-08T07:44:30;13.60;99.90
12386;DHT22;6257;57.634;18.310;2023-08-08T07:47:00;13.60;99.90
12386;DHT22;6257;57.634;18.310;2023-08-08T07:49:27;13.60;99.90
12386;DHT22;6257;57.634;18.310;2023-08-08T07:51:54;13.80;99.90
12386;DHT22;6257;57.634;18.310;2023-08-08T07:54:21;13.80;99.90
12386;DHT22;6257;57.634;18.310;2023-08-08T07:56:48;13.90;99.90
12386;DHT22;6257;57.634;18.310;2023-08-08T08:04:12;14.00;99.90
12386;DHT22;6257;57.634;18.310;2023-08-08T08:06:39;14.00;99.90
12386;DHT22;6257;57.634;18.310;2023-08-08T08:09:06;14.10;99.90
12386;DHT22;6257;57.634;18.310;2023-08-08T08:11:34;14.10;99.90
12386;DHT22;6257;57.634;18.310;2023-08-08T08:16:31;14.10;99.90
12386;DHT22;6257;57.634;18.310;2023-08-08T08:21:28;14.20;99.90
12386;DHT22;6257;57.634;18.310;2023-08-08T08:23:56;14.20;99.90
12386;DHT22;6257;57.634;18.310;2023-08-08T08:26:23;14.30;99.90
12386;DHT22;6257;57.634;18.310;2023-08-08T08:28:50;14.40;99.90
12386;DHT22;6257;57.634;18.310;2023-08-08T08:31:17;14.40;99.90
12386;DHT22;6257;57.634;18.310;2023-08-08T08:33:44;14.40;99.90
12386;DHT22;6257;57.634;18.310;2023-08-08T08:36:13;14.40;99.90
12386;DHT22;6257;57.634;18.310;2023-08-08T08:38:40;14.40;99.90
12386;DHT22;6257;57.634;18.310;2023-08-08T08:41:08;14.30;99.90
12386;DHT22;6257;57.634;18.310;2023-08-08T08:43:36;14.30;99.90
12386;DHT22;6257;57.634;18.310;2023-08-08T08:46:05;14.40;99.90
12386;DHT22;6257;57.634;18.310;2023-08-08T08:48:34;14.40;99.90
12386;DHT22;6257;57.634;18.310;2023-08-08T08:51:01;14.40;99.90
12386;DHT22;6257;57.634;18.310;2023-08-08T08:53:31;14.40;99.90
12386;DHT22;6257;57.634;18.310;2023-08-08T08:58:31;14.50;99.90
12386;DHT22;6257;57.634;18.310;2023-08-08T09:00:58;14.50;99.90
12386;DHT22;6257;57.634;18.310;2023-08-08T09:03:26;14.50;99.90
12386;DHT22;6257;57.634;18.310;2023-08-08T09:05:54;14.50;99.90
12386;DHT22;6257;57.634;18.310;2023-08-08T09:08:22;14.40;99.90
12386;DHT22;6257;57.634;18.310;2023-08-08T09:10:51;14.40;99.90
12386;DHT22;6257;57.634;18.310;2023-08-08T09:13:18;14.30;99.90
12386;DHT22;6257;57.634;18.310;2023-08-08T09:15:48;14.20;99.90
12386;DHT22;6257;57.634;18.310;2023-08-08T09:18:16;14.10;99.90
12386;DHT22;6257;57.634;18.310;2023-08-08T09:20:47;14.00;99.90
12386;DHT22;6257;57.634;18.310;2023-08-08T09:23:16;13.90;99.90
12386;DHT22;6257;57.634;18.310;2023-08-08T09:25:43;13.90;99.90
12386;DHT22;6257;57.634;18.310;2023-08-08T09:28:12;13.90;99.90
12386;DHT22;6257;57.634;18.310;2023-08-08T09:30:41;13.90;99.90
12386;DHT22;6257;57.634;18.310;2023-08-08T09:33:08;14.00;99.90
12386;DHT22;6257;57.634;18.310;2023-08-08T09:35:38;14.10;99.90
12386;DHT22;6257;57.634;18.310;2023-08-08T09:38:06;14.20;99.90
12386;DHT22;6257;57.634;18.310;2023-08-08T09:40:33;14.40;99.90
12386;DHT22;6257;57.634;18.310;2023-08-08T09:43:00;14.50;99.90
12386;DHT22;6257;57.634;18.310;2023-08-08T09:45:37;14.60;99.90
12386;DHT22;6257;57.634;18.310;2023-08-08T09:48:04;14.60;99.90
12386;DHT22;6257;57.634;18.310;2023-08-08T09:50:33;14.70;99.90
12386;DHT22;6257;57.634;18.310;2023-08-08T09:53:01;14.70;99.90
12386;DHT22;6257;57.634;18.310;2023-08-08T09:55:29;14.70;99.90
12386;DHT22;6257;57.634;18.310;2023-08-08T09:57:57;14.70;99.90
12386;DHT22;6257;57.634;18.310;2023-08-08T10:00:25;14.70;99.90
12386;DHT22;6257;57.634;18.310;2023-08-08T10:02:55;14.90;99.90
12386;DHT22;6257;57.634;18.310;2023-08-08T10:05:23;14.80;99.90
12386;DHT22;6257;57.634;18.310;2023-08-08T10:07:50;14.60;99.90
12386;DHT22;6257;57.634;18.310;2023-08-08T10:15:14;14.30;99.90
12386;DHT22;6257;57.634;18.310;2023-08-08T10:17:41;14.20;99.90
12386;DHT22;6257;57.634;18.310;2023-08-08T10:20:11;14.00;99.90
12386;DHT22;6257;57.634;18.310;2023-08-08T10:22:42;14.00;99.90
12386;DHT22;6257;57.634;18.310;2023-08-08T10:25:22;14.00;99.90
12386;DHT22;6257;57.634;18.310;2023-08-08T10:27:50;14.00;99.90
12386;DHT22;6257;57.634;18.310;2023-08-08T10:32:45;13.90;99.90
12386;DHT22;6257;57.634;18.310;2023-08-08T10:35:15;14.10;99.90
12386;DHT22;6257;57.634;18.310;2023-08-08T10:37:52;14.30;99.90
12386;DHT22;6257;57.634;18.310;2023-08-08T10:40:20;14.40;99.90
12386;DHT22;6257;57.634;18.310;2023-08-08T10:45:16;14.50;99.90
12386;DHT22;6257;57.634;18.310;2023-08-08T10:47:44;14.60;99.90
12386;DHT22;6257;57.634;18.310;2023-08-08T10:50:14;14.60;99.90
12386;DHT22;6257;57.634;18.310;2023-08-08T10:52:54;14.60;99.90
12386;DHT22;6257;57.634;18.310;2023-08-08T10:55:22;14.50;99.90
12386;DHT22;6257;57.634;18.310;2023-08-08T10:57:55;14.40;99.90
12386;DHT22;6257;57.634;18.310;2023-08-08T11:00:25;14.40;99.90
12386;DHT22;6257;57.634;18.310;2023-08-08T11:02:54;14.30;99.90
12386;DHT22;6257;57.634;18.310;2023-08-08T11:05:22;14.20;99.90
12386;DHT22;6257;57.634;18.310;2023-08-08T11:07:49;14.00;99.90
12386;DHT22;6257;57.634;18.310;2023-08-08T11:10:18;13.80;99.90
12386;DHT22;6257;57.634;18.310;2023-08-08T11:12:54;13.90;99.90
12386;DHT22;6257;57.634;18.310;2023-08-08T11:15:21;13.90;99.90
12386;DHT22;6257;57.634;18.310;2023-08-08T11:17:48;14.00;99.90
12386;DHT22;6257;57.634;18.310;2023-08-08T11:20:18;14.10;99.90
12386;DHT22;6257;57.634;18.310;2023-08-08T11:25:14;14.30;99.90
12386;DHT22;6257;57.634;18.310;2023-08-08T11:30:17;14.70;99.90
12386;DHT22;6257;57.634;18.310;2023-08-08T11:32:45;14.90;99.90
12386;DHT22;6257;57.634;18.310;2023-08-08T11:35:13;15.00;99.90
12386;DHT22;6257;57.634;18.310;2023-08-08T11:37:42;15.20;99.90
12386;DHT22;6257;57.634;18.310;2023-08-08T11:40:11;15.20;99.90
12386;DHT22;6257;57.634;18.310;2023-08-08T11:42:38;15.40;99.90
12386;DHT22;6257;57.634;18.310;2023-08-08T11:45:09;15.60;99.90
12386;DHT22;6257;57.634;18.310;2023-08-08T11:47:38;15.90;99.90
12386;DHT22;6257;57.634;18.310;2023-08-08T11:50:06;16.00;99.90
12386;DHT22;6257;57.634;18.310;2023-08-08T11:52:35;16.10;99.90
12386;DHT22;6257;57.634;18.310;2023-08-08T11:55:02;15.90;99.90
12386;DHT22;6257;57.634;18.310;2023-08-08T11:57:40;16.10;99.90
12386;DHT22;6257;57.634;18.310;2023-08-08T12:00:08;15.70;99.90
12386;DHT22;6257;57.634;18.310;2023-08-08T12:02:39;15.70;99.90
12386;DHT22;6257;57.634;18.310;2023-08-08T12:05:08;15.70;99.90
12386;DHT22;6257;57.634;18.310;2023-08-08T12:07:37;15.90;99.90
12386;DHT22;6257;57.634;18.310;2023-08-08T12:10:13;16.00;99.90
12386;DHT22;6257;57.634;18.310;2023-08-08T12:12:42;16.00;99.90
12386;DHT22;6257;57.634;18.310;2023-08-08T12:15:10;16.10;99.90
12386;DHT22;6257;57.634;18.310;2023-08-08T12:17:38;16.20;99.90
12386;DHT22;6257;57.634;18.310;2023-08-08T12:20:07;16.30;99.90
12386;DHT22;6257;57.634;18.310;2023-08-08T12:22:35;16.20;99.90
12386;DHT22;6257;57.634;18.310;2023-08-08T12:25:03;16.30;99.90
12386;DHT22;6257;57.634;18.310;2023-08-08T12:27:30;16.20;99.90
12386;DHT22;6257;57.634;18.310;2023-08-08T12:29:59;16.10;99.90
12386;DHT22;6257;57.634;18.310;2023-08-08T12:32:27;16.20;99.90
12386;DHT22;6257;57.634;18.310;2023-08-08T12:34:57;16.20;99.90
12386;DHT22;6257;57.634;18.310;2023-08-08T12:37:24;16.20;99.90
12386;DHT22;6257;57.634;18.310;2023-08-08T12:39:51;16.10;99.90
12386;DHT22;6257;57.634;18.310;2023-08-08T12:42:18;16.00;99.90
12386;DHT22;6257;57.634;18.310;2023-08-08T12:44:45;15.80;99.90
12386;DHT22;6257;57.634;18.310;2023-08-08T12:47:18;15.70;99.90
12386;DHT22;6257;57.634;18.310;2023-08-08T12:49:46;15.70;99.90
12386;DHT22;6257;57.634;18.310;2023-08-08T12:52:13;15.60;99.90
12386;DHT22;6257;57.634;18.310;2023-08-08T12:54:40;15.40;99.90
12386;DHT22;6257;57.634;18.310;2023-08-08T12:57:07;15.40;99.90
12386;DHT22;6257;57.634;18.310;2023-08-08T12:59:34;15.50;99.90
12386;DHT22;6257;57.634;18.310;2023-08-08T13:02:02;15.70;99.90
12386;DHT22;6257;57.634;18.310;2023-08-08T13:04:31;15.80;99.90
12386;DHT22;6257;57.634;18.310;2023-08-08T13:06:58;15.80;99.90
12386;DHT22;6257;57.634;18.310;2023-08-08T13:09:25;15.80;99.90
12386;DHT22;6257;57.634;18.310;2023-08-08T13:11:52;15.90;99.90
12386;DHT22;6257;57.634;18.310;2023-08-08T13:14:19;16.00;99.90
12386;DHT22;6257;57.634;18.310;2023-08-08T13:16:46;16.20;99.90
12386;DHT22;6257;57.634;18.310;2023-08-08T13:19:14;16.40;99.90
12386;DHT22;6257;57.634;18.310;2023-08-08T13:21:46;16.30;99.90
12386;DHT22;6257;57.634;18.310;2023-08-08T13:24:13;16.00;99.90
12386;DHT22;6257;57.634;18.310;2023-08-08T13:26:40;15.80;99.90
12386;DHT22;6257;57.634;18.310;2023-08-08T13:29:07;15.80;99.90
12386;DHT22;6257;57.634;18.310;2023-08-08T13:31:34;15.80;99.90
12386;DHT22;6257;57.634;18.310;2023-08-08T13:34:02;15.90;99.90
12386;DHT22;6257;57.634;18.310;2023-08-08T13:36:29;15.90;99.90
12386;DHT22;6257;57.634;18.310;2023-08-08T13:43:56;15.80;99.90
12386;DHT22;6257;57.634;18.310;2023-08-08T13:46:43;15.90;99.90
12386;DHT22;6257;57.634;18.310;2023-08-08T13:49:10;15.50;99.90
12386;DHT22;6257;57.634;18.310;2023-08-08T13:54:11;13.10;99.90
12386;DHT22;6257;57.634;18.310;2023-08-08T13:56:38;16.20;99.90
12386;DHT22;6257;57.634;18.310;2023-08-08T13:59:05;16.20;99.90
12386;DHT22;6257;57.634;18.310;2023-08-08T14:01:32;16.10;99.90
12386;DHT22;6257;57.634;18.310;2023-08-08T14:03:59;16.10;99.90
12386;DHT22;6257;57.634;18.310;2023-08-08T14:06:26;16.00;99.90
12386;DHT22;6257;57.634;18.310;2023-08-08T14:08:54;15.90;99.90
12386;DHT22;6257;57.634;18.310;2023-08-08T14:13:50;15.70;99.90
12386;DHT22;6257;57.634;18.310;2023-08-08T14:16:17;15.70;99.90
12386;DHT22;6257;57.634;18.310;2023-08-08T14:18:44;15.60;99.90
12386;DHT22;6257;57.634;18.310;2023-08-08T14:21:11;15.60;99.90
12386;DHT22;6257;57.634;18.310;2023-08-08T14:23:38;15.60;99.90
12386;DHT22;6257;57.634;18.310;2023-08-08T14:26:05;15.70;99.90
12386;DHT22;6257;57.634;18.310;2023-08-08T14:28:40;15.70;99.90
12386;DHT22;6257;57.634;18.310;2023-08-08T14:38:48;15.50;99.90
12386;DHT22;6257;57.634;18.310;2023-08-08T14:49:16;16.00;99.90
12386;DHT22;6257;57.634;18.310;2023-08-08T14:56:43;16.10;99.90
12386;DHT22;6257;57.634;18.310;2023-08-08T14:59:10;16.10;99.90
12386;DHT22;6257;57.634;18.310;2023-08-08T15:09:06;16.20;99.90
12386;DHT22;6257;57.634;18.310;2023-08-08T15:11:33;16.20;99.90
12386;DHT22;6257;57.634;18.310;2023-08-08T15:14:00;16.20;99.90
12386;DHT22;6257;57.634;18.310;2023-08-08T15:16:28;16.20;99.90
12386;DHT22;6257;57.634;18.310;2023-08-08T15:18:57;16.10;99.90
12386;DHT22;6257;57.634;18.310;2023-08-08T15:21:24;16.10;99.90
12386;DHT22;6257;57.634;18.310;2023-08-08T15:23:51;16.10;99.90
12386;DHT22;6257;57.634;18.310;2023-08-08T15:26:18;16.10;99.90
12386;DHT22;6257;57.634;18.310;2023-08-08T15:28:48;16.10;99.90
12386;DHT22;6257;57.634;18.310;2023-08-08T15:31:15;16.10;99.90
12386;DHT22;6257;57.634;18.310;2023-08-08T15:33:42;16.20;99.90
12386;DHT22;6257;57.634;18.310;2023-08-08T15:36:11;16.10;99.90
12386;DHT22;6257;57.634;18.310;2023-08-08T15:38:38;16.00;99.90
12386;DHT22;6257;57.634;18.310;2023-08-08T15:41:05;16.00;99.90
12386;DHT22;6257;57.634;18.310;2023-08-08T15:43:32;16.10;99.90
12386;DHT22;6257;57.634;18.310;2023-08-08T15:45:59;16.10;99.90
12386;DHT22;6257;57.634;18.310;2023-08-08T15:48:26;16.00;99.90
12386;DHT22;6257;57.634;18.310;2023-08-08T15:50:54;16.00;99.90
12386;DHT22;6257;57.634;18.310;2023-08-08T15:53:23;15.90;99.90
12386;DHT22;6257;57.634;18.310;2023-08-08T15:55:50;15.70;99.90
12386;DHT22;6257;57.634;18.310;2023-08-08T15:58:17;15.70;99.90
12386;DHT22;6257;57.634;18.310;2023-08-08T16:00:44;15.70;99.90
12386;DHT22;6257;57.634;18.310;2023-08-08T16:03:11;15.70;99.90
12386;DHT22;6257;57.634;18.310;2023-08-08T16:05:39;15.60;99.90
12386;DHT22;6257;57.634;18.310;2023-08-08T16:08:06;15.60;99.90
12386;DHT22;6257;57.634;18.310;2023-08-08T16:13:02;15.50;99.90
12386;DHT22;6257;57.634;18.310;2023-08-08T16:15:29;15.50;99.90
12386;DHT22;6257;57.634;18.310;2023-08-08T16:17:56;15.50;99.90
12386;DHT22;6257;57.634;18.310;2023-08-08T16:20:23;15.50;99.90
12386;DHT22;6257;57.634;18.310;2023-08-08T16:22:50;15.50;99.90
12386;DHT22;6257;57.634;18.310;2023-08-08T16:25:17;15.50;99.90
12386;DHT22;6257;57.634;18.310;2023-08-08T16:27:45;15.50;99.90
12386;DHT22;6257;57.634;18.310;2023-08-08T16:30:13;15.50;99.90
12386;DHT22;6257;57.634;18.310;2023-08-08T16:32:40;15.60;99.90
12386;DHT22;6257;57.634;18.310;2023-08-08T16:35:07;15.60;99.90
12386;DHT22;6257;57.634;18.310;2023-08-08T16:37:35;15.70;99.90
12386;DHT22;6257;57.634;18.310;2023-08-08T16:40:02;15.80;99.90
12386;DHT22;6257;57.634;18.310;2023-08-08T16:42:29;16.00;99.90
12386;DHT22;6257;57.634;18.310;2023-08-08T16:47:25;15.80;99.90
12386;DHT22;6257;57.634;18.310;2023-08-08T16:49:52;15.70;99.90
12386;DHT22;6257;57.634;18.310;2023-08-08T16:52:19;15.80;99.90
12386;DHT22;6257;57.634;18.310;2023-08-08T16:54:46;15.80;99.90